sensor_id;sensor_type;location;lat;lon;timestamp;P1;durP1;ratioP1;P2;durP2;ratioP2
31347;SDS011;21711;49.708;18.568;2023-08-30T10:06:57;9.50;;;6.35;;
31347;SDS011;21711;49.708;18.568;2023-08-30T10:09:25;9.30;;;5.75;;
31347;SDS011;21711;49.708;18.568;2023-08-30T10:11:54;13.75;;;7.55;;
31347;SDS011;21711;49.708;18.568;2023-08-30T10:14:24;9.30;;;6.57;;
31347;SDS011;21711;49.708;18.568;2023-08-30T10:16:51;12.35;;;6.55;;
31347;SDS011;21711;49.708;18.568;2023-08-30T10:19:32;10.00;;;6.47;;
31347;SDS011;21711;49.708;18.568;2023-08-30T10:22:06;10.23;;;5.82;;
31347;SDS011;21711;49.708;18.568;2023-08-30T10:24:45;8.23;;;5.70;;
31347;SDS011;21711;49.708;18.568;2023-08-30T10:27:37;10.55;;;7.00;;
31347;SDS011;21711;49.708;18.568;2023-08-30T10:30:08;13.43;;;7.43;;
31347;SDS011;21711;49.708;18.568;2023-08-30T10:32:41;9.20;;;6.80;;
31347;SDS011;21711;49.708;18.568;2023-08-30T10:35:10;9.63;;;7.18;;
31347;SDS011;21711;49.708;18.568;2023-08-30T10:37:42;9.93;;;6.38;;
31347;SDS011;21711;49.708;18.568;2023-08-30T10:40:21;8.57;;;5.88;;
31347;SDS011;21711;49.708;18.568;2023-08-30T10:42:58;8.77;;;4.20;;
31347;SDS011;21711;49.708;18.568;2023-08-30T10:45:30;8.98;;;3.85;;
31347;SDS011;21711;49.708;18.568;2023-08-30T10:47:58;7.35;;;3.63;;
31347;SDS011;21711;49.708;18.568;2023-08-30T10:50:30;8.05;;;4.40;;
31347;SDS011;21711;49.708;18.568;2023-08-30T10:53:00;5.95;;;3.03;;
31347;SDS011;21711;49.708;18.568;2023-08-30T10:55:27;5.53;;;3.25;;
31347;SDS011;21711;49.708;18.568;2023-08-30T10:57:58;5.20;;;3.08;;
31347;SDS011;21711;49.708;18.568;2023-08-30T11:00:31;6.95;;;3.28;;
31347;SDS011;21711;49.708;18.568;2023-08-30T11:02:58;6.93;;;3.00;;
31347;SDS011;21711;49.708;18.568;2023-08-30T11:05:26;3.60;;;2.40;;
31347;SDS011;21711;49.708;18.568;2023-08-30T11:07:55;5.30;;;2.78;;
31347;SDS011;21711;49.708;18.568;2023-08-30T11:10:23;3.95;;;2.10;;
31347;SDS011;21711;49.708;18.568;2023-08-30T11:12:50;5.65;;;2.15;;
31347;SDS011;21711;49.708;18.568;2023-08-30T11:15:18;4.47;;;2.60;;
31347;SDS011;21711;49.708;18.568;2023-08-30T11:17:47;5.65;;;2.85;;
31347;SDS011;21711;49.708;18.568;2023-08-30T11:20:15;4.65;;;2.53;;
31347;SDS011;21711;49.708;18.568;2023-08-30T11:22:45;4.45;;;2.42;;
31347;SDS011;21711;49.708;18.568;2023-08-30T11:25:15;4.45;;;2.35;;
31347;SDS011;21711;49.708;18.568;2023-08-30T11:27:43;6.45;;;2.97;;
31347;SDS011;21711;49.708;18.568;2023-08-30T11:30:12;4.75;;;3.28;;
31347;SDS011;21711;49.708;18.568;2023-08-30T11:32:40;4.00;;;2.85;;
31347;SDS011;21711;49.708;18.568;2023-08-30T11:35:10;7.28;;;4.10;;
31347;SDS011;21711;49.708;18.568;2023-08-30T11:37:37;7.78;;;4.35;;
31347;SDS011;21711;49.708;18.568;2023-08-30T11:40:06;5.60;;;4.65;;
31347;SDS011;21711;49.708;18.568;2023-08-30T11:42:34;7.68;;;5.50;;
31347;SDS011;21711;49.708;18.568;2023-08-30T11:45:02;6.80;;;5.28;;
31347;SDS011;21711;49.708;18.568;2023-08-30T11:47:30;9.35;;;5.05;;
31347;SDS011;21711;49.708;18.568;2023-08-30T11:49:58;7.00;;;5.05;;
31347;SDS011;21711;49.708;18.568;2023-08-30T11:52:26;10.05;;;6.30;;
31347;SDS011;21711;49.708;18.568;2023-08-30T11:54:54;7.53;;;5.70;;
31347;SDS011;21711;49.708;18.568;2023-08-30T11:57:22;9.20;;;6.07;;
31347;SDS011;21711;49.708;18.568;2023-08-30T11:59:50;9.77;;;5.68;;
31347;SDS011;21711;49.708;18.568;2023-08-30T12:02:18;9.73;;;6.13;;
31347;SDS011;21711;49.708;18.568;2023-08-30T12:04:46;11.20;;;7.30;;
31347;SDS011;21711;49.708;18.568;2023-08-30T12:07:21;8.10;;;7.22;;
31347;SDS011;21711;49.708;18.568;2023-08-30T12:09:50;9.20;;;7.53;;
31347;SDS011;21711;49.708;18.568;2023-08-30T12:12:18;8.40;;;6.88;;
31347;SDS011;21711;49.708;18.568;2023-08-30T12:14:54;6.75;;;5.47;;
31347;SDS011;21711;49.708;18.568;2023-08-30T12:17:24;8.38;;;4.72;;
31347;SDS011;21711;49.708;18.568;2023-08-30T12:19:55;5.53;;;4.55;;
31347;SDS011;21711;49.708;18.568;2023-08-30T12:22:23;5.43;;;4.47;;
31347;SDS011;21711;49.708;18.568;2023-08-30T12:25:18;7.22;;;4.60;;
31347;SDS011;21711;49.708;18.568;2023-08-30T12:27:47;5.35;;;4.18;;
31347;SDS011;21711;49.708;18.568;2023-08-30T12:30:15;4.53;;;4.03;;
31347;SDS011;21711;49.708;18.568;2023-08-30T12:32:46;5.15;;;3.95;;
31347;SDS011;21711;49.708;18.568;2023-08-30T12:35:14;5.53;;;4.38;;
31347;SDS011;21711;49.708;18.568;2023-08-30T12:37:42;6.35;;;4.15;;
31347;SDS011;21711;49.708;18.568;2023-08-30T12:40:10;5.43;;;3.92;;
31347;SDS011;21711;49.708;18.568;2023-08-30T12:42:38;8.30;;;4.18;;
31347;SDS011;21711;49.708;18.568;2023-08-30T12:45:06;4.47;;;3.97;;
31347;SDS011;21711;49.708;18.568;2023-08-30T12:47:34;4.50;;;3.90;;
31347;SDS011;21711;49.708;18.568;2023-08-30T12:50:02;4.50;;;3.13;;
31347;SDS011;21711;49.708;18.568;2023-08-30T12:52:30;5.55;;;3.35;;
31347;SDS011;21711;49.708;18.568;2023-08-30T12:54:58;3.70;;;3.20;;
31347;SDS011;21711;49.708;18.568;2023-08-30T12:57:26;3.05;;;2.67;;
31347;SDS011;21711;49.708;18.568;2023-08-30T12:59:53;6.32;;;2.95;;
31347;SDS011;21711;49.708;18.568;2023-08-30T13:02:20;4.20;;;3.08;;
31347;SDS011;21711;49.708;18.568;2023-08-30T13:04:48;6.63;;;3.88;;
31347;SDS011;21711;49.708;18.568;2023-08-30T13:07:15;5.25;;;3.03;;
31347;SDS011;21711;49.708;18.568;2023-08-30T13:09:43;4.18;;;3.35;;
31347;SDS011;21711;49.708;18.568;2023-08-30T13:12:11;6.07;;;3.28;;
31347;SDS011;21711;49.708;18.568;2023-08-30T13:14:38;4.43;;;3.00;;
31347;SDS011;21711;49.708;18.568;2023-08-30T13:17:06;3.25;;;2.88;;
31347;SDS011;21711;49.708;18.568;2023-08-30T13:19:33;6.03;;;3.45;;
31347;SDS011;21711;49.708;18.568;2023-08-30T13:22:00;6.38;;;3.13;;
31347;SDS011;21711;49.708;18.568;2023-08-30T13:24:28;7.82;;;3.05;;
31347;SDS011;21711;49.708;18.568;2023-08-30T13:29:26;3.13;;;2.83;;
31347;SDS011;21711;49.708;18.568;2023-08-30T13:31:53;3.05;;;2.75;;
31347;SDS011;21711;49.708;18.568;2023-08-30T13:34:21;3.90;;;2.50;;
31347;SDS011;21711;49.708;18.568;2023-08-30T13:36:49;3.22;;;2.67;;
31347;SDS011;21711;49.708;18.568;2023-08-30T13:39:16;4.00;;;2.35;;
31347;SDS011;21711;49.708;18.568;2023-08-30T13:41:49;3.05;;;2.22;;
31347;SDS011;21711;49.708;18.568;2023-08-30T13:44:16;2.60;;;2.30;;
31347;SDS011;21711;49.708;18.568;2023-08-30T13:46:44;2.85;;;2.17;;
31347;SDS011;21711;49.708;18.568;2023-08-30T13:49:14;3.47;;;2.60;;
31347;SDS011;21711;49.708;18.568;2023-08-30T13:51:42;2.70;;;2.22;;
31347;SDS011;21711;49.708;18.568;2023-08-30T13:54:10;2.85;;;2.38;;
31347;SDS011;21711;49.708;18.568;2023-08-30T13:56:38;2.78;;;1.48;;
31347;SDS011;21711;49.708;18.568;2023-08-30T13:59:05;2.00;;;1.38;;
31347;SDS011;21711;49.708;18.568;2023-08-30T14:01:33;1.70;;;1.50;;
31347;SDS011;21711;49.708;18.568;2023-08-30T14:04:04;1.70;;;0.90;;
31347;SDS011;21711;49.708;18.568;2023-08-30T14:06:33;2.80;;;0.97;;
31347;SDS011;21711;49.708;18.568;2023-08-30T14:09:01;1.23;;;0.73;;
31347;SDS011;21711;49.708;18.568;2023-08-30T14:11:31;2.25;;;1.27;;
31347;SDS011;21711;49.708;18.568;2023-08-30T14:13:59;3.20;;;2.28;;
31347;SDS011;21711;49.708;18.568;2023-08-30T14:16:28;1.65;;;1.20;;
31347;SDS011;21711;49.708;18.568;2023-08-30T14:18:55;2.25;;;1.17;;
31347;SDS011;21711;49.708;18.568;2023-08-30T14:21:26;1.23;;;1.13;;
31347;SDS011;21711;49.708;18.568;2023-08-30T14:23:53;2.22;;;1.38;;
31347;SDS011;21711;49.708;18.568;2023-08-30T14:26:21;3.03;;;1.70;;
31347;SDS011;21711;49.708;18.568;2023-08-30T14:28:48;2.63;;;1.83;;
31347;SDS011;21711;49.708;18.568;2023-08-30T14:31:16;3.45;;;2.00;;
31347;SDS011;21711;49.708;18.568;2023-08-30T14:33:44;2.88;;;2.50;;
31347;SDS011;21711;49.708;18.568;2023-08-30T14:36:11;3.45;;;2.28;;
31347;SDS011;21711;49.708;18.568;2023-08-30T14:38:41;2.78;;;2.15;;
31347;SDS011;21711;49.708;18.568;2023-08-30T14:41:08;2.38;;;1.88;;
31347;SDS011;21711;49.708;18.568;2023-08-30T14:43:35;2.20;;;2.00;;
31347;SDS011;21711;49.708;18.568;2023-08-30T14:46:04;2.47;;;1.70;;
31347;SDS011;21711;49.708;18.568;2023-08-30T14:48:39;2.33;;;1.75;;
31347;SDS011;21711;49.708;18.568;2023-08-30T14:51:06;4.13;;;1.55;;
31347;SDS011;21711;49.708;18.568;2023-08-30T14:53:34;1.35;;;1.15;;
31347;SDS011;21711;49.708;18.568;2023-08-30T14:56:03;2.88;;;1.92;;
31347;SDS011;21711;49.708;18.568;2023-08-30T14:58:36;1.98;;;1.60;;
31347;SDS011;21711;49.708;18.568;2023-08-30T15:01:04;2.65;;;1.40;;
31347;SDS011;21711;49.708;18.568;2023-08-30T15:03:31;4.07;;;1.83;;
31347;SDS011;21711;49.708;18.568;2023-08-30T15:06:00;1.50;;;1.10;;
31347;SDS011;21711;49.708;18.568;2023-08-30T15:08:27;1.58;;;1.35;;
31347;SDS011;21711;49.708;18.568;2023-08-30T15:10:57;2.78;;;1.38;;
31347;SDS011;21711;49.708;18.568;2023-08-30T15:13:24;1.80;;;1.30;;
31347;SDS011;21711;49.708;18.568;2023-08-30T15:15:52;1.70;;;1.17;;
31347;SDS011;21711;49.708;18.568;2023-08-30T15:18:19;2.22;;;1.38;;
31347;SDS011;21711;49.708;18.568;2023-08-30T15:20:47;2.30;;;1.70;;
31347;SDS011;21711;49.708;18.568;2023-08-30T15:25:46;2.90;;;2.22;;
31347;SDS011;21711;49.708;18.568;2023-08-30T15:28:15;3.37;;;2.30;;
31347;SDS011;21711;49.708;18.568;2023-08-30T15:30:46;3.10;;;2.20;;
31347;SDS011;21711;49.708;18.568;2023-08-30T15:33:17;3.63;;;2.60;;
31347;SDS011;21711;49.708;18.568;2023-08-30T15:35:46;3.30;;;2.58;;
31347;SDS011;21711;49.708;18.568;2023-08-30T15:38:14;6.90;;;3.38;;
31347;SDS011;21711;49.708;18.568;2023-08-30T15:40:42;6.00;;;3.45;;
31347;SDS011;21711;49.708;18.568;2023-08-30T15:43:10;5.60;;;3.78;;
31347;SDS011;21711;49.708;18.568;2023-08-30T15:45:37;6.43;;;3.35;;
31347;SDS011;21711;49.708;18.568;2023-08-30T15:48:05;5.28;;;3.50;;
31347;SDS011;21711;49.708;18.568;2023-08-30T15:50:33;6.03;;;3.58;;
31347;SDS011;21711;49.708;18.568;2023-08-30T15:53:00;6.22;;;2.95;;
31347;SDS011;21711;49.708;18.568;2023-08-30T15:55:27;3.78;;;2.65;;
31347;SDS011;21711;49.708;18.568;2023-08-30T15:57:55;8.95;;;2.80;;
31347;SDS011;21711;49.708;18.568;2023-08-30T16:00:23;4.20;;;3.10;;
31347;SDS011;21711;49.708;18.568;2023-08-30T16:02:50;9.07;;;2.88;;
31347;SDS011;21711;49.708;18.568;2023-08-30T16:05:19;5.10;;;3.38;;
31347;SDS011;21711;49.708;18.568;2023-08-30T16:07:46;5.03;;;2.88;;
31347;SDS011;21711;49.708;18.568;2023-08-30T16:10:14;6.63;;;3.70;;
31347;SDS011;21711;49.708;18.568;2023-08-30T16:12:41;7.03;;;3.60;;
31347;SDS011;21711;49.708;18.568;2023-08-30T16:15:09;4.53;;;3.60;;
31347;SDS011;21711;49.708;18.568;2023-08-30T16:17:37;5.55;;;3.72;;
31347;SDS011;21711;49.708;18.568;2023-08-30T16:20:04;4.80;;;3.55;;
31347;SDS011;21711;49.708;18.568;2023-08-30T16:22:34;6.68;;;3.38;;
31347;SDS011;21711;49.708;18.568;2023-08-30T16:25:01;6.85;;;3.78;;
31347;SDS011;21711;49.708;18.568;2023-08-30T16:27:30;6.05;;;3.80;;
31347;SDS011;21711;49.708;18.568;2023-08-30T16:29:57;7.55;;;4.05;;
31347;SDS011;21711;49.708;18.568;2023-08-30T16:32:26;6.47;;;4.18;;
31347;SDS011;21711;49.708;18.568;2023-08-30T16:34:54;6.40;;;4.03;;
31347;SDS011;21711;49.708;18.568;2023-08-30T16:37:22;8.60;;;4.82;;
31347;SDS011;21711;49.708;18.568;2023-08-30T16:39:49;6.63;;;4.32;;
31347;SDS011;21711;49.708;18.568;2023-08-30T16:42:17;8.15;;;4.80;;
31347;SDS011;21711;49.708;18.568;2023-08-30T16:44:45;7.75;;;3.90;;
31347;SDS011;21711;49.708;18.568;2023-08-30T16:47:12;5.03;;;4.35;;
31347;SDS011;21711;49.708;18.568;2023-08-30T16:49:40;9.27;;;4.15;;
31347;SDS011;21711;49.708;18.568;2023-08-30T16:52:07;5.13;;;3.60;;
31347;SDS011;21711;49.708;18.568;2023-08-30T16:54:36;8.38;;;4.18;;
31347;SDS011;21711;49.708;18.568;2023-08-30T16:57:04;7.05;;;3.70;;
31347;SDS011;21711;49.708;18.568;2023-08-30T16:59:31;12.70;;;3.80;;
31347;SDS011;21711;49.708;18.568;2023-08-30T17:01:59;6.38;;;4.13;;
31347;SDS011;21711;49.708;18.568;2023-08-30T17:04:26;5.70;;;4.05;;
31347;SDS011;21711;49.708;18.568;2023-08-30T17:06:54;7.32;;;3.78;;
31347;SDS011;21711;49.708;18.568;2023-08-30T17:09:34;6.78;;;4.07;;
31347;SDS011;21711;49.708;18.568;2023-08-30T17:12:04;8.85;;;4.57;;
31347;SDS011;21711;49.708;18.568;2023-08-30T17:14:33;10.13;;;4.53;;
31347;SDS011;21711;49.708;18.568;2023-08-30T17:17:00;7.40;;;3.97;;
31347;SDS011;21711;49.708;18.568;2023-08-30T17:19:28;7.78;;;3.72;;
31347;SDS011;21711;49.708;18.568;2023-08-30T17:21:56;6.40;;;4.72;;
31347;SDS011;21711;49.708;18.568;2023-08-30T17:24:23;7.32;;;5.00;;
31347;SDS011;21711;49.708;18.568;2023-08-30T17:26:51;6.78;;;5.15;;
31347;SDS011;21711;49.708;18.568;2023-08-30T17:29:18;6.90;;;4.55;;
31347;SDS011;21711;49.708;18.568;2023-08-30T17:31:45;6.85;;;4.22;;
31347;SDS011;21711;49.708;18.568;2023-08-30T17:34:13;7.95;;;5.57;;
31347;SDS011;21711;49.708;18.568;2023-08-30T17:36:40;5.38;;;3.95;;
31347;SDS011;21711;49.708;18.568;2023-08-30T17:39:14;10.93;;;4.88;;
31347;SDS011;21711;49.708;18.568;2023-08-30T17:41:41;7.82;;;4.68;;
31347;SDS011;21711;49.708;18.568;2023-08-30T17:44:09;9.23;;;4.80;;
31347;SDS011;21711;49.708;18.568;2023-08-30T17:46:37;6.50;;;4.80;;
31347;SDS011;21711;49.708;18.568;2023-08-30T17:49:05;10.18;;;4.82;;
31347;SDS011;21711;49.708;18.568;2023-08-30T17:51:32;8.18;;;5.05;;
31347;SDS011;21711;49.708;18.568;2023-08-30T17:54:00;8.18;;;5.03;;
31347;SDS011;21711;49.708;18.568;2023-08-30T17:56:27;8.85;;;5.88;;
31347;SDS011;21711;49.708;18.568;2023-08-30T17:58:55;7.72;;;5.88;;
31347;SDS011;21711;49.708;18.568;2023-08-30T18:01:22;10.38;;;6.55;;
31347;SDS011;21711;49.708;18.568;2023-08-30T18:03:54;11.45;;;6.70;;
31347;SDS011;21711;49.708;18.568;2023-08-30T18:06:21;10.00;;;6.50;;
31347;SDS011;21711;49.708;18.568;2023-08-30T18:08:49;10.00;;;6.90;;
31347;SDS011;21711;49.708;18.568;2023-08-30T18:11:18;10.38;;;6.38;;
31347;SDS011;21711;49.708;18.568;2023-08-30T18:13:47;8.70;;;6.35;;
31347;SDS011;21711;49.708;18.568;2023-08-30T18:16:17;11.02;;;6.60;;
31347;SDS011;21711;49.708;18.568;2023-08-30T18:18:50;11.20;;;6.55;;
31347;SDS011;21711;49.708;18.568;2023-08-30T18:26:53;9.55;;;6.43;;
31347;SDS011;21711;49.708;18.568;2023-08-30T18:29:22;8.93;;;6.03;;
31347;SDS011;21711;49.708;18.568;2023-08-30T18:31:51;10.98;;;6.05;;
31347;SDS011;21711;49.708;18.568;2023-08-30T18:34:18;9.88;;;6.60;;
31347;SDS011;21711;49.708;18.568;2023-08-30T18:36:46;10.55;;;6.38;;
31347;SDS011;21711;49.708;18.568;2023-08-30T18:39:14;8.07;;;5.88;;
31347;SDS011;21711;49.708;18.568;2023-08-30T18:41:43;9.60;;;5.72;;
31347;SDS011;21711;49.708;18.568;2023-08-30T18:44:10;14.02;;;7.40;;
31347;SDS011;21711;49.708;18.568;2023-08-30T18:46:38;12.75;;;7.00;;
31347;SDS011;21711;49.708;18.568;2023-08-30T18:49:05;11.40;;;6.68;;
31347;SDS011;21711;49.708;18.568;2023-08-30T18:51:33;11.00;;;7.22;;
31347;SDS011;21711;49.708;18.568;2023-08-30T18:54:02;10.90;;;5.90;;
31347;SDS011;21711;49.708;18.568;2023-08-30T18:56:31;12.02;;;7.35;;
31347;SDS011;21711;49.708;18.568;2023-08-30T18:59:00;10.63;;;6.05;;
31347;SDS011;21711;49.708;18.568;2023-08-30T19:01:31;10.18;;;6.28;;
31347;SDS011;21711;49.708;18.568;2023-08-30T19:03:58;8.90;;;5.80;;
31347;SDS011;21711;49.708;18.568;2023-08-30T19:06:26;9.95;;;6.25;;
31347;SDS011;21711;49.708;18.568;2023-08-30T19:08:53;9.82;;;6.53;;
31347;SDS011;21711;49.708;18.568;2023-08-30T19:11:21;10.20;;;6.40;;
31347;SDS011;21711;49.708;18.568;2023-08-30T19:13:49;8.73;;;5.63;;
31347;SDS011;21711;49.708;18.568;2023-08-30T19:16:18;8.70;;;6.17;;
31347;SDS011;21711;49.708;18.568;2023-08-30T19:18:48;10.70;;;6.78;;
31347;SDS011;21711;49.708;18.568;2023-08-30T19:21:15;13.30;;;6.75;;
31347;SDS011;21711;49.708;18.568;2023-08-30T19:23:46;9.93;;;6.43;;
31347;SDS011;21711;49.708;18.568;2023-08-30T19:26:15;10.23;;;6.88;;
31347;SDS011;21711;49.708;18.568;2023-08-30T19:28:43;12.57;;;7.00;;
31347;SDS011;21711;49.708;18.568;2023-08-30T19:31:11;9.32;;;6.60;;
31347;SDS011;21711;49.708;18.568;2023-08-30T19:33:39;12.57;;;6.72;;
31347;SDS011;21711;49.708;18.568;2023-08-30T19:36:06;14.02;;;7.18;;
31347;SDS011;21711;49.708;18.568;2023-08-30T19:38:33;10.05;;;6.45;;
31347;SDS011;21711;49.708;18.568;2023-08-30T19:41:01;12.73;;;8.07;;
31347;SDS011;21711;49.708;18.568;2023-08-30T19:43:29;15.63;;;8.30;;
31347;SDS011;21711;49.708;18.568;2023-08-30T19:46:01;13.13;;;8.10;;
31347;SDS011;21711;49.708;18.568;2023-08-30T19:48:31;15.25;;;8.43;;
31347;SDS011;21711;49.708;18.568;2023-08-30T19:50:58;13.27;;;7.97;;
31347;SDS011;21711;49.708;18.568;2023-08-30T19:53:27;10.80;;;7.53;;
31347;SDS011;21711;49.708;18.568;2023-08-30T19:55:58;14.55;;;8.10;;
31347;SDS011;21711;49.708;18.568;2023-08-30T19:58:27;13.40;;;7.65;;
31347;SDS011;21711;49.708;18.568;2023-08-30T20:01:01;14.95;;;8.05;;
31347;SDS011;21711;49.708;18.568;2023-08-30T20:03:32;17.08;;;8.80;;
31347;SDS011;21711;49.708;18.568;2023-08-30T20:06:00;17.08;;;9.30;;
31347;SDS011;21711;49.708;18.568;2023-08-30T20:08:30;19.05;;;9.55;;
31347;SDS011;21711;49.708;18.568;2023-08-30T20:11:04;16.33;;;8.73;;
31347;SDS011;21711;49.708;18.568;2023-08-30T20:13:33;13.10;;;7.68;;
31347;SDS011;21711;49.708;18.568;2023-08-30T20:16:03;15.52;;;9.27;;
31347;SDS011;21711;49.708;18.568;2023-08-30T20:18:32;18.08;;;8.85;;
31347;SDS011;21711;49.708;18.568;2023-08-30T20:21:00;13.93;;;8.88;;
31347;SDS011;21711;49.708;18.568;2023-08-30T20:23:31;18.60;;;9.57;;
31347;SDS011;21711;49.708;18.568;2023-08-30T20:25:59;14.90;;;8.55;;
31347;SDS011;21711;49.708;18.568;2023-08-30T20:28:27;17.23;;;9.20;;
31347;SDS011;21711;49.708;18.568;2023-08-30T20:30:54;16.23;;;9.38;;
31347;SDS011;21711;49.708;18.568;2023-08-30T20:33:21;17.50;;;9.75;;
31347;SDS011;21711;49.708;18.568;2023-08-30T20:35:51;15.40;;;8.75;;
31347;SDS011;21711;49.708;18.568;2023-08-30T20:38:18;17.25;;;9.30;;
31347;SDS011;21711;49.708;18.568;2023-08-30T20:40:45;18.27;;;9.52;;
31347;SDS011;21711;49.708;18.568;2023-08-30T20:43:13;14.88;;;8.85;;
31347;SDS011;21711;49.708;18.568;2023-08-30T20:45:43;17.45;;;9.00;;
31347;SDS011;21711;49.708;18.568;2023-08-30T20:48:11;15.02;;;8.88;;
31347;SDS011;21711;49.708;18.568;2023-08-30T20:50:39;17.48;;;10.27;;
31347;SDS011;21711;49.708;18.568;2023-08-30T20:53:06;19.35;;;10.60;;
31347;SDS011;21711;49.708;18.568;2023-08-30T20:55:40;17.20;;;9.35;;
31347;SDS011;21711;49.708;18.568;2023-08-30T20:58:09;19.80;;;9.05;;
31347;SDS011;21711;49.708;18.568;2023-08-30T21:00:37;14.85;;;8.88;;
31347;SDS011;21711;49.708;18.568;2023-08-30T21:03:04;15.57;;;9.23;;
31347;SDS011;21711;49.708;18.568;2023-08-30T21:05:32;16.05;;;10.23;;
31347;SDS011;21711;49.708;18.568;2023-08-30T21:08:00;13.30;;;8.98;;
31347;SDS011;21711;49.708;18.568;2023-08-30T21:10:30;15.70;;;9.50;;
31347;SDS011;21711;49.708;18.568;2023-08-30T21:12:59;15.80;;;9.10;;
31347;SDS011;21711;49.708;18.568;2023-08-30T21:15:31;17.33;;;8.98;;
31347;SDS011;21711;49.708;18.568;2023-08-30T21:17:58;16.88;;;9.50;;
31347;SDS011;21711;49.708;18.568;2023-08-30T21:20:26;15.90;;;9.43;;
31347;SDS011;21711;49.708;18.568;2023-08-30T21:22:53;16.20;;;8.65;;
31347;SDS011;21711;49.708;18.568;2023-08-30T21:25:22;21.02;;;9.98;;
31347;SDS011;21711;49.708;18.568;2023-08-30T21:27:50;19.30;;;10.07;;
31347;SDS011;21711;49.708;18.568;2023-08-30T21:30:19;16.97;;;9.60;;
31347;SDS011;21711;49.708;18.568;2023-08-30T21:32:46;20.80;;;9.30;;
31347;SDS011;21711;49.708;18.568;2023-08-30T21:35:15;15.68;;;9.13;;
31347;SDS011;21711;49.708;18.568;2023-08-30T21:37:43;19.60;;;9.10;;
31347;SDS011;21711;49.708;18.568;2023-08-30T21:40:10;13.32;;;8.50;;
31347;SDS011;21711;49.708;18.568;2023-08-30T21:42:38;18.63;;;9.55;;
31347;SDS011;21711;49.708;18.568;2023-08-30T21:45:05;17.08;;;9.63;;
31347;SDS011;21711;49.708;18.568;2023-08-30T21:47:33;13.75;;;8.48;;
31347;SDS011;21711;49.708;18.568;2023-08-30T21:50:02;22.52;;;9.43;;
31347;SDS011;21711;49.708;18.568;2023-08-30T21:52:30;17.40;;;9.63;;
31347;SDS011;21711;49.708;18.568;2023-08-30T21:54:57;16.35;;;8.57;;
31347;SDS011;21711;49.708;18.568;2023-08-30T21:57:25;15.98;;;9.57;;
31347;SDS011;21711;49.708;18.568;2023-08-30T21:59:52;16.75;;;10.15;;
31347;SDS011;21711;49.708;18.568;2023-08-30T22:02:21;18.15;;;9.88;;
31347;SDS011;21711;49.708;18.568;2023-08-30T22:04:48;24.80;;;10.65;;
31347;SDS011;21711;49.708;18.568;2023-08-30T22:07:16;16.88;;;8.95;;
31347;SDS011;21711;49.708;18.568;2023-08-30T22:09:44;18.00;;;9.48;;
31347;SDS011;21711;49.708;18.568;2023-08-30T22:12:11;26.45;;;9.82;;
31347;SDS011;21711;49.708;18.568;2023-08-30T22:14:38;17.95;;;10.13;;
31347;SDS011;21711;49.708;18.568;2023-08-30T22:17:15;14.88;;;9.80;;
31347;SDS011;21711;49.708;18.568;2023-08-30T22:19:42;25.05;;;9.10;;
31347;SDS011;21711;49.708;18.568;2023-08-30T22:22:09;15.38;;;9.40;;
31347;SDS011;21711;49.708;18.568;2023-08-30T22:24:37;19.73;;;9.05;;
31347;SDS011;21711;49.708;18.568;2023-08-30T22:27:05;16.83;;;8.68;;
31347;SDS011;21711;49.708;18.568;2023-08-30T22:29:32;19.08;;;11.05;;
31347;SDS011;21711;49.708;18.568;2023-08-30T22:31:59;15.85;;;9.07;;
31347;SDS011;21711;49.708;18.568;2023-08-30T22:34:26;21.17;;;10.13;;
31347;SDS011;21711;49.708;18.568;2023-08-30T22:36:54;14.88;;;8.98;;
31347;SDS011;21711;49.708;18.568;2023-08-30T22:39:22;26.92;;;10.50;;
31347;SDS011;21711;49.708;18.568;2023-08-30T22:41:50;20.38;;;9.00;;
31347;SDS011;21711;49.708;18.568;2023-08-30T22:44:17;15.73;;;8.45;;
31347;SDS011;21711;49.708;18.568;2023-08-30T22:46:44;20.35;;;9.35;;
31347;SDS011;21711;49.708;18.568;2023-08-30T22:49:12;20.10;;;9.98;;
31347;SDS011;21711;49.708;18.568;2023-08-30T22:51:40;21.48;;;10.45;;
31347;SDS011;21711;49.708;18.568;2023-08-30T22:54:19;19.63;;;10.38;;
31347;SDS011;21711;49.708;18.568;2023-08-30T22:56:48;19.90;;;9.65;;
31347;SDS011;21711;49.708;18.568;2023-08-30T22:59:15;19.25;;;10.07;;
31347;SDS011;21711;49.708;18.568;2023-08-30T23:01:42;19.83;;;9.98;;
31347;SDS011;21711;49.708;18.568;2023-08-30T23:04:12;18.88;;;10.48;;
31347;SDS011;21711;49.708;18.568;2023-08-30T23:06:40;18.25;;;9.40;;
31347;SDS011;21711;49.708;18.568;2023-08-30T23:09:09;16.27;;;9.30;;
31347;SDS011;21711;49.708;18.568;2023-08-30T23:11:39;18.87;;;9.43;;
31347;SDS011;21711;49.708;18.568;2023-08-30T23:14:10;20.10;;;10.15;;
31347;SDS011;21711;49.708;18.568;2023-08-30T23:16:42;21.73;;;10.00;;
31347;SDS011;21711;49.708;18.568;2023-08-30T23:19:10;18.27;;;9.65;;
31347;SDS011;21711;49.708;18.568;2023-08-30T23:21:37;22.52;;;10.00;;
31347;SDS011;21711;49.708;18.568;2023-08-30T23:24:04;17.55;;;9.20;;
31347;SDS011;21711;49.708;18.568;2023-08-30T23:26:32;21.42;;;10.75;;
31347;SDS011;21711;49.708;18.568;2023-08-30T23:29:01;18.55;;;9.90;;
31347;SDS011;21711;49.708;18.568;2023-08-30T23:31:30;21.60;;;10.48;;
31347;SDS011;21711;49.708;18.568;2023-08-30T23:33:58;24.70;;;10.07;;
31347;SDS011;21711;49.708;18.568;2023-08-30T23:36:27;18.30;;;10.55;;
31347;SDS011;21711;49.708;18.568;2023-08-30T23:38:55;19.33;;;9.73;;
31347;SDS011;21711;49.708;18.568;2023-08-30T23:41:23;22.75;;;10.48;;
31347;SDS011;21711;49.708;18.568;2023-08-30T23:43:50;18.15;;;9.38;;
31347;SDS011;21711;49.708;18.568;2023-08-30T23:46:17;18.02;;;9.93;;
31347;SDS011;21711;49.708;18.568;2023-08-30T23:48:45;21.15;;;10.07;;
31347;SDS011;21711;49.708;18.568;2023-08-30T23:51:12;24.50;;;9.95;;
31347;SDS011;21711;49.708;18.568;2023-08-30T23:53:39;17.30;;;9.52;;
31347;SDS011;21711;49.708;18.568;2023-08-30T23:56:07;21.83;;;9.02;;
31347;SDS011;21711;49.708;18.568;2023-08-30T23:58:34;24.25;;;10.52;;
